Airfield :
LOGIN :

Register | Disclaimer

   EN    FR    IT 

 










Legend :    VFR   Marginal VFR   IFR   Intensive IFR   Very Intensive IFR
Visi :
Ceiling :
>= 8 km
>= 3000ft
5 to 8 km
1000 to 3000 ft
1500m to 5 km
500 to 1000 ft
800 to 1500m
200 to 500 ft
< 800m
< 200 ft
Symbols :   Thunderstorms  Fog  Heavy snow  Heavy precipitations  Wind > 20 kt
SIGMETs :     Misc.  Thunderstorms  Icing  Turbulence  Mountain Waves  Volcanic Ashes






- Airport Elevation : 124 ft
- IATA code : RNS


LFRN - Rennes

CURRENT METAR :
  • 021800Z AUTO 30005KT 250V350 9999 SCT031 BKN038 BKN072 18/12 Q1018 TEMPO 4000 SHRA BKN030TCU

EXPIRED METARs :
  • 021730Z AUTO 28005KT 240V300 CAVOK 18/12 Q1018 TEMPO 4000 SHRA BKN030TCU
  • 021700Z AUTO VRB03KT 9999 ///TCU 17/12 Q1018 TEMPO 4000 SHRA
  • 021630Z AUTO 32006KT 290V360 9999 FEW036 OVC045 16/12 Q1018 TEMPO 4000 SHRA BKN030TCU
  • 021600Z AUTO 30014KT 9999 -RA SCT030 BKN039 BKN048 16/12 Q1018 TEMPO 4000 SHRA BKN030TCU BECMG VRB03KT
  • 021530Z AUTO 33009KT 9999 -RA FEW040 BKN046 OVC052 17/12 Q1017 TEMPO 4000 SHRA BKN030TCU

TAF TAF LFRN
Valid from the 02 at 18:00 until the 03 at 18:00 UTC


021700Z 0218/0318 VRB03KT 9999 BKN030
PROB30
TEMPO 0218/0221 4000 SHRA BKN030TCU
PROB30
TEMPO 0300/0306 3000 BR BKN013
BECMG 0309/0312 26010KT
ATIS : +33 2 99 67 72 50



MET'MAP, your aeronautical weather chart ! - Copyright ORBIFLY December 2007 - Disclaimer

ORBIFLY MET'MAP TEAM :

Programming & Development : Alexandra Zaïnal
Concept & original design : Baudouin d'Aumeries
Assistance for programming : Marc-Olivier Méhu
Technical & hardware support : Manuel Goepfert

Contact : metmap@orbifly.com




SOURCES & CREDITS :

   NOAA